createdAt,value
2024-01-04T00:00:29.817Z,5.60
2024-01-04T00:01:29.784Z,6.20
2024-01-04T00:02:29.808Z,4.90
2024-01-04T00:03:29.844Z,7.40
2024-01-04T00:04:29.761Z,6.50
2024-01-04T00:05:29.931Z,5.70
2024-01-04T00:06:29.736Z,6.30
2024-01-04T00:07:29.728Z,5.60
2024-01-04T00:08:29.761Z,6.70
2024-01-04T00:09:29.737Z,5.40
2024-01-04T00:10:29.716Z,6.90
2024-01-04T00:11:29.773Z,6.10
2024-01-04T00:12:29.680Z,7.50
2024-01-04T00:13:29.665Z,4.90
2024-01-04T00:14:29.790Z,5.90
2024-01-04T00:15:29.649Z,5.20
2024-01-04T00:16:29.632Z,6.60
2024-01-04T00:17:29.673Z,5.50
2024-01-04T00:18:29.793Z,5.10
2024-01-04T00:19:29.621Z,6.00
2024-01-04T00:20:29.700Z,7.10
2024-01-04T00:21:29.623Z,7.90
2024-01-04T00:22:29.560Z,5.10
2024-01-04T00:23:29.621Z,6.50
2024-01-04T00:24:29.539Z,5.90
2024-01-04T00:25:30.103Z,5.20
2024-01-04T00:26:29.534Z,5.30
2024-01-04T00:27:29.527Z,4.90
2024-01-04T00:28:29.525Z,4.80
2024-01-04T00:29:29.504Z,6.20
2024-01-04T00:30:29.504Z,5.60
2024-01-04T00:31:29.518Z,5.90
2024-01-04T00:32:29.528Z,4.50
2024-01-04T00:33:29.576Z,5.90
2024-01-04T00:34:29.585Z,5.30
2024-01-04T00:35:29.454Z,5.20
2024-01-04T00:36:29.430Z,5.50
2024-01-04T00:37:29.444Z,5.90
2024-01-04T00:38:29.424Z,6.40
2024-01-04T00:39:29.424Z,5.70
2024-01-04T00:40:29.380Z,5.70
2024-01-04T00:41:29.358Z,6.20
2024-01-04T00:42:29.444Z,5.20
2024-01-04T00:43:29.373Z,3.80
2024-01-04T00:44:29.355Z,5.00
2024-01-04T00:45:29.323Z,6.20
2024-01-04T00:46:29.321Z,5.60
2024-01-04T00:47:29.372Z,7.20
2024-01-04T00:48:29.487Z,4.00
2024-01-04T00:49:29.324Z,4.40
2024-01-04T00:50:29.305Z,6.30
2024-01-04T00:51:29.257Z,5.20
2024-01-04T00:52:29.263Z,5.80
2024-01-04T00:53:29.281Z,5.50
2024-01-04T00:54:29.242Z,4.40
2024-01-04T00:55:29.214Z,4.40
2024-01-04T00:56:29.199Z,7.00
2024-01-04T00:57:29.201Z,4.40
2024-01-04T00:58:29.558Z,5.10
2024-01-04T00:59:29.229Z,7.20
2024-01-04T01:00:29.226Z,4.40
2024-01-04T01:01:29.152Z,5.10
2024-01-04T01:02:29.146Z,5.10
2024-01-04T01:03:29.190Z,4.10
2024-01-04T01:04:29.160Z,4.40
2024-01-04T01:05:29.148Z,5.70
2024-01-04T01:06:29.186Z,6.50
2024-01-04T01:07:29.152Z,6.70
2024-01-04T01:08:29.074Z,5.50
2024-01-04T01:09:29.061Z,5.20
2024-01-04T01:10:29.096Z,4.40
2024-01-04T01:11:29.068Z,4.50
2024-01-04T01:12:29.073Z,3.70
2024-01-04T01:13:29.030Z,5.50
2024-01-04T01:14:29.031Z,4.90
2024-01-04T01:15:29.062Z,5.20
2024-01-04T01:16:29.001Z,2.90
2024-01-04T01:17:29.008Z,3.40
2024-01-04T01:18:29.089Z,5.80
2024-01-04T01:19:29.223Z,4.20
2024-01-04T01:20:28.964Z,5.20
2024-01-04T01:21:28.968Z,4.30
2024-01-04T01:22:28.974Z,5.60
2024-01-04T01:23:28.939Z,4.50
2024-01-04T01:24:28.921Z,5.10
2024-01-04T01:25:28.905Z,3.90
2024-01-04T01:26:28.916Z,4.90
2024-01-04T01:27:28.884Z,5.00
2024-01-04T01:28:28.889Z,6.10
2024-01-04T01:29:28.850Z,3.50
2024-01-04T01:30:29.081Z,4.00
2024-01-04T01:31:28.953Z,4.40
2024-01-04T01:32:28.903Z,4.40
2024-01-04T01:33:29.053Z,5.80
2024-01-04T01:34:28.833Z,4.20
2024-01-04T01:35:29.002Z,3.80
2024-01-04T01:36:28.827Z,5.40
2024-01-04T01:37:28.860Z,4.30
2024-01-04T01:38:28.765Z,3.40
2024-01-04T01:39:28.778Z,5.50
2024-01-04T01:40:28.761Z,3.40
2024-01-04T01:41:28.731Z,4.30
2024-01-04T01:42:28.712Z,6.40
2024-01-04T01:43:28.731Z,4.50
2024-01-04T01:44:28.710Z,5.30
2024-01-04T01:45:28.714Z,5.00
2024-01-04T01:46:28.724Z,3.70
2024-01-04T01:47:28.699Z,3.50
2024-01-04T01:48:28.915Z,3.30
2024-01-04T01:49:28.775Z,4.20
2024-01-04T01:50:28.646Z,4.60
2024-01-04T01:51:28.660Z,5.60
2024-01-04T01:52:28.610Z,3.80
2024-01-04T01:53:28.617Z,3.70
2024-01-04T01:54:28.610Z,5.80
2024-01-04T01:55:28.588Z,4.90
2024-01-04T01:56:28.592Z,4.40
2024-01-04T01:57:28.612Z,5.80
2024-01-04T01:58:28.558Z,5.20
2024-01-04T01:59:28.549Z,4.80
2024-01-04T02:00:28.549Z,4.30
2024-01-04T02:01:28.519Z,3.60
2024-01-04T02:02:28.534Z,5.90
2024-01-04T02:03:28.560Z,3.80
2024-01-04T02:04:28.494Z,4.80
2024-01-04T02:05:28.533Z,3.60
2024-01-04T02:06:28.551Z,4.60
2024-01-04T02:07:28.491Z,3.50
2024-01-04T02:08:28.471Z,3.80
2024-01-04T02:09:28.442Z,4.00
2024-01-04T02:10:28.451Z,4.60
2024-01-04T02:11:28.411Z,3.70
2024-01-04T02:12:28.429Z,3.40
2024-01-04T02:13:28.422Z,4.30
2024-01-04T02:14:28.404Z,5.00
2024-01-04T02:15:28.374Z,3.20
2024-01-04T02:16:28.388Z,3.80
2024-01-04T02:17:28.500Z,4.80
2024-01-04T02:18:28.499Z,3.80
2024-01-04T02:19:28.468Z,4.30
2024-01-04T02:20:28.361Z,4.00
2024-01-04T02:21:28.335Z,3.80
2024-01-04T02:22:28.344Z,4.40
2024-01-04T02:23:28.306Z,3.60
2024-01-04T02:24:28.291Z,4.40
2024-01-04T02:25:28.271Z,4.70
2024-01-04T02:26:28.297Z,4.00
2024-01-04T02:27:28.253Z,5.10
2024-01-04T02:28:28.254Z,3.30
2024-01-04T02:29:28.241Z,4.50
2024-01-04T02:30:28.351Z,3.80
2024-01-04T02:31:28.208Z,5.50
2024-01-04T02:32:28.321Z,5.00
2024-01-04T02:33:28.330Z,4.40
2024-01-04T02:34:28.377Z,3.80
2024-01-04T02:35:28.163Z,5.40
2024-01-04T02:36:28.166Z,4.70
2024-01-04T02:37:28.165Z,4.20
2024-01-04T02:38:28.146Z,3.90
2024-01-04T02:39:28.131Z,3.90
2024-01-04T02:40:28.143Z,3.90
2024-01-04T02:41:28.105Z,2.70
2024-01-04T02:42:28.093Z,3.20
2024-01-04T02:43:28.070Z,2.80
2024-01-04T02:44:28.101Z,4.00
2024-01-04T02:45:28.057Z,4.30
2024-01-04T02:46:28.044Z,4.60
2024-01-04T02:47:28.088Z,3.90
2024-01-04T02:48:28.200Z,2.20
2024-01-04T02:49:28.133Z,2.90
2024-01-04T02:50:28.033Z,3.30
2024-01-04T02:51:28.010Z,2.90
2024-01-04T02:52:27.996Z,4.60
2024-01-04T02:53:27.992Z,3.40
2024-01-04T02:54:27.991Z,3.30
2024-01-04T02:55:27.962Z,3.40
2024-01-04T02:56:29.158Z,3.70
2024-01-04T02:57:27.944Z,3.30
2024-01-04T02:58:27.926Z,4.90
2024-01-04T02:59:28.259Z,3.80
2024-01-04T03:00:28.002Z,4.50
2024-01-04T03:01:28.593Z,4.90
2024-01-04T03:02:27.964Z,3.60
2024-01-04T03:03:27.978Z,2.80
2024-01-04T03:04:28.113Z,4.50
2024-01-04T03:05:27.935Z,5.50
2024-01-04T03:06:27.862Z,4.20
2024-01-04T03:07:27.874Z,6.50
2024-01-04T03:08:27.841Z,3.10
2024-01-04T03:09:27.845Z,4.70
2024-01-04T03:10:27.851Z,5.20
2024-01-04T03:11:27.847Z,4.30
2024-01-04T03:12:27.808Z,4.00
2024-01-04T03:13:27.829Z,3.60
2024-01-04T03:14:27.803Z,3.50
2024-01-04T03:15:27.774Z,2.60
2024-01-04T03:16:27.790Z,3.70
2024-01-04T03:17:27.802Z,4.30
2024-01-04T03:18:27.866Z,2.60
2024-01-04T03:19:27.789Z,2.80
2024-01-04T03:20:27.727Z,6.50
2024-01-04T03:21:27.914Z,2.30
2024-01-04T03:22:27.748Z,3.40
2024-01-04T03:23:27.767Z,2.30
2024-01-04T03:24:27.823Z,1.90
2024-01-04T03:25:28.583Z,3.30
2024-01-04T03:26:27.735Z,1.70
2024-01-04T03:27:27.680Z,3.00
2024-01-04T03:28:27.685Z,2.10
2024-01-04T03:29:27.627Z,3.60
2024-01-04T03:30:27.775Z,2.60
2024-01-04T03:31:27.634Z,3.60
2024-01-04T03:32:27.626Z,2.00
2024-01-04T03:33:27.730Z,3.90
2024-01-04T03:34:27.782Z,2.30
2024-01-04T03:35:27.555Z,4.80
2024-01-04T03:36:27.536Z,3.70
2024-01-04T03:37:27.543Z,2.90
2024-01-04T03:38:27.533Z,2.50
2024-01-04T03:39:27.516Z,2.10
2024-01-04T03:40:27.519Z,2.50
2024-01-04T03:41:27.509Z,4.50
2024-01-04T03:42:27.471Z,3.10
2024-01-04T03:43:27.467Z,2.40
2024-01-04T03:44:27.489Z,4.70
2024-01-04T03:45:27.461Z,4.00
2024-01-04T03:46:27.432Z,3.20
2024-01-04T03:47:27.510Z,2.60
2024-01-04T03:48:27.483Z,2.50
2024-01-04T03:49:27.513Z,3.60
2024-01-04T03:50:27.416Z,2.00
2024-01-04T03:51:27.384Z,1.90
2024-01-04T03:52:27.372Z,1.70
2024-01-04T03:53:27.355Z,5.00
2024-01-04T03:54:27.376Z,3.10
2024-01-04T03:55:27.394Z,2.60
2024-01-04T03:56:27.305Z,4.00
2024-01-04T03:57:27.308Z,2.60
2024-01-04T03:58:27.756Z,3.40
2024-01-04T03:59:27.309Z,3.60
2024-01-04T04:00:27.343Z,3.40
2024-01-04T04:01:27.304Z,2.20
2024-01-04T04:02:27.248Z,3.50
2024-01-04T04:03:27.285Z,2.70
2024-01-04T04:04:27.207Z,2.60
2024-01-04T04:05:27.259Z,4.30
2024-01-04T04:06:27.243Z,3.00
2024-01-04T04:07:27.243Z,3.70
2024-01-04T04:08:27.172Z,2.60
2024-01-04T04:09:27.288Z,2.50
2024-01-04T04:10:27.177Z,4.60
2024-01-04T04:11:27.187Z,2.50
2024-01-04T04:12:27.145Z,4.50
2024-01-04T04:13:27.146Z,2.60
2024-01-04T04:14:27.097Z,4.00
2024-01-04T04:15:27.221Z,3.80
2024-01-04T04:16:27.156Z,2.00
2024-01-04T04:17:27.110Z,2.40
2024-01-04T04:18:27.129Z,2.80
2024-01-04T04:19:27.099Z,2.10
2024-01-04T04:20:27.023Z,2.90
2024-01-04T04:21:27.033Z,3.90
2024-01-04T04:22:27.022Z,3.00
2024-01-04T04:23:26.992Z,2.60
2024-01-04T04:24:27.078Z,3.40
2024-01-04T04:25:26.975Z,2.90
2024-01-04T04:26:26.954Z,3.50
2024-01-04T04:27:26.961Z,3.70
2024-01-04T04:28:26.973Z,4.70
2024-01-04T04:29:26.949Z,3.30
2024-01-04T04:30:26.985Z,2.20
2024-01-04T04:31:26.956Z,3.20
2024-01-04T04:32:26.937Z,2.20
2024-01-04T04:33:27.117Z,3.10
2024-01-04T04:34:26.883Z,3.10
2024-01-04T04:35:26.877Z,4.10
2024-01-04T04:36:26.947Z,2.80
2024-01-04T04:37:26.866Z,2.80
2024-01-04T04:38:26.861Z,3.10
2024-01-04T04:39:26.895Z,3.00
2024-01-04T04:40:26.814Z,2.30
2024-01-04T04:41:26.813Z,3.00
2024-01-04T04:42:26.838Z,3.20
2024-01-04T04:43:26.806Z,4.00
2024-01-04T04:44:26.786Z,1.90
2024-01-04T04:45:26.812Z,4.10
2024-01-04T04:46:26.742Z,2.80
2024-01-04T04:47:26.789Z,2.90
2024-01-04T04:48:26.892Z,4.50
2024-01-04T04:49:26.873Z,3.00
2024-01-04T04:50:26.709Z,4.70
2024-01-04T04:51:26.720Z,4.80
2024-01-04T04:52:26.694Z,2.60
2024-01-04T04:53:26.681Z,2.90
2024-01-04T04:54:26.710Z,3.00
2024-01-04T04:55:26.661Z,2.60
2024-01-04T04:56:26.666Z,2.80
2024-01-04T04:57:26.701Z,3.90
2024-01-04T04:58:26.673Z,3.10
2024-01-04T04:59:26.656Z,3.00
2024-01-04T05:00:26.664Z,3.40
2024-01-04T05:01:26.615Z,2.10
2024-01-04T05:02:26.591Z,3.40
2024-01-04T05:03:26.752Z,3.00
2024-01-04T05:04:26.570Z,2.40
2024-01-04T05:05:26.570Z,4.20
2024-01-04T05:06:26.698Z,4.00
2024-01-04T05:07:26.561Z,3.70
2024-01-04T05:08:26.539Z,3.00
2024-01-04T05:09:26.615Z,3.30
2024-01-04T05:10:26.520Z,3.70
2024-01-04T05:11:26.497Z,4.10
2024-01-04T05:12:26.495Z,3.60
2024-01-04T05:13:26.484Z,3.70
2024-01-04T05:14:26.462Z,3.10
2024-01-04T05:15:26.494Z,3.50
2024-01-04T05:16:26.487Z,3.50
2024-01-04T05:17:26.484Z,3.80
2024-01-04T05:18:26.562Z,3.60
2024-01-04T05:19:26.609Z,3.70
2024-01-04T05:20:26.392Z,3.90
2024-01-04T05:21:26.475Z,4.70
2024-01-04T05:22:26.378Z,3.60
2024-01-04T05:23:26.400Z,4.00
2024-01-04T05:24:26.429Z,3.30
2024-01-04T05:25:26.340Z,3.20
2024-01-04T05:26:26.337Z,4.40
2024-01-04T05:27:26.379Z,5.30
2024-01-04T05:28:26.354Z,3.00
2024-01-04T05:29:26.330Z,5.00
2024-01-04T05:30:26.357Z,3.20
2024-01-04T05:31:26.298Z,3.90
2024-01-04T05:32:26.346Z,4.00
2024-01-04T05:33:26.512Z,3.90
2024-01-04T05:34:26.427Z,2.80
2024-01-04T05:35:26.256Z,3.90
2024-01-04T05:36:26.294Z,2.40
2024-01-04T05:37:26.246Z,4.00
2024-01-04T05:38:26.223Z,3.70
2024-01-04T05:39:26.241Z,4.10
2024-01-04T05:40:26.208Z,4.70
2024-01-04T05:41:26.169Z,4.10
2024-01-04T05:42:26.173Z,3.20
2024-01-04T05:43:26.160Z,3.30
2024-01-04T05:44:26.164Z,3.30
2024-01-04T05:45:26.331Z,5.00
2024-01-04T05:46:26.130Z,3.10
2024-01-04T05:47:26.211Z,4.20
2024-01-04T05:48:26.263Z,5.70
2024-01-04T05:49:26.247Z,6.50
2024-01-04T05:50:26.081Z,5.40
2024-01-04T05:51:26.118Z,4.70
2024-01-04T05:52:26.068Z,4.20
2024-01-04T05:53:26.045Z,3.70
2024-01-04T05:54:26.118Z,3.90
2024-01-04T05:55:26.031Z,4.60
2024-01-04T05:56:26.024Z,4.80
2024-01-04T05:57:26.040Z,4.20
2024-01-04T05:58:26.638Z,5.10
2024-01-04T05:59:26.069Z,3.80
2024-01-04T06:00:26.014Z,4.70
2024-01-04T06:01:26.196Z,4.60
2024-01-04T06:02:25.955Z,4.50
2024-01-04T06:03:26.043Z,4.70
2024-01-04T06:04:25.949Z,4.60
2024-01-04T06:05:25.956Z,4.70
2024-01-04T06:06:25.944Z,4.10
2024-01-04T06:07:28.984Z,4.20
2024-01-04T06:08:25.935Z,4.50
2024-01-04T06:09:26.190Z,5.20
2024-01-04T06:10:25.878Z,4.70
2024-01-04T06:11:25.842Z,5.80
2024-01-04T06:12:25.992Z,3.70
2024-01-04T06:13:25.866Z,4.10
2024-01-04T06:14:25.823Z,3.90
2024-01-04T06:15:25.921Z,3.00
2024-01-04T06:16:25.823Z,4.30
2024-01-04T06:17:25.858Z,3.30
2024-01-04T06:18:26.056Z,4.30
2024-01-04T06:19:26.070Z,3.60
2024-01-04T06:20:25.769Z,3.10
2024-01-04T06:21:25.799Z,2.60
2024-01-04T06:22:25.751Z,3.20
2024-01-04T06:23:25.717Z,3.60
2024-01-04T06:24:25.830Z,3.70
2024-01-04T06:25:25.689Z,3.60
2024-01-04T06:26:25.820Z,3.30
2024-01-04T06:27:25.839Z,3.30
2024-01-04T06:28:25.695Z,4.50
2024-01-04T06:29:25.656Z,3.90
2024-01-04T06:30:26.445Z,3.90
2024-01-04T06:31:25.712Z,5.30
2024-01-04T06:32:25.685Z,3.30
2024-01-04T06:33:25.763Z,6.70
2024-01-04T06:34:25.678Z,5.00
2024-01-04T06:35:25.610Z,3.70
2024-01-04T06:36:25.682Z,4.50
2024-01-04T06:37:25.563Z,4.60
2024-01-04T06:38:25.576Z,3.80
2024-01-04T06:39:25.598Z,4.20
2024-01-04T06:40:25.565Z,6.40
2024-01-04T06:41:25.533Z,4.50
2024-01-04T06:42:25.563Z,4.60
2024-01-04T06:43:25.511Z,5.40
2024-01-04T06:44:33.829Z,4.10
2024-01-04T06:45:25.612Z,4.10
2024-01-04T06:46:25.511Z,1.90
2024-01-04T06:47:25.507Z,2.50
2024-01-04T06:48:25.764Z,3.00
2024-01-04T06:49:25.688Z,2.10
2024-01-04T06:50:25.710Z,2.20
2024-01-04T06:51:25.561Z,1.60
2024-01-04T06:52:25.503Z,3.20
2024-01-04T06:53:25.497Z,2.70
2024-01-04T06:54:25.500Z,1.70
2024-01-04T06:55:25.462Z,2.50
2024-01-04T06:56:25.442Z,2.30
2024-01-04T06:57:25.482Z,1.90
2024-01-04T06:58:25.399Z,3.20
2024-01-04T06:59:25.372Z,2.10
2024-01-04T07:00:25.436Z,1.80
2024-01-04T07:01:25.544Z,2.50
2024-01-04T07:02:25.387Z,3.40
2024-01-04T07:03:25.439Z,2.20
2024-01-04T07:04:25.442Z,2.30
2024-01-04T07:05:25.478Z,3.50
2024-01-04T07:06:25.380Z,3.90
2024-01-04T07:07:25.511Z,2.70
2024-01-04T07:08:25.253Z,2.80
2024-01-04T07:09:25.388Z,2.80
2024-01-04T07:10:25.242Z,3.10
2024-01-04T07:11:25.233Z,2.70
2024-01-04T07:12:25.321Z,4.00
2024-01-04T07:13:25.181Z,2.90
2024-01-04T07:14:25.175Z,3.40
2024-01-04T07:15:25.294Z,2.10
2024-01-04T07:16:25.163Z,2.20
2024-01-04T07:17:25.226Z,2.90
2024-01-04T07:18:25.253Z,3.30
2024-01-04T07:19:25.311Z,4.20
2024-01-04T07:20:26.306Z,1.90
2024-01-04T07:21:25.102Z,2.60
2024-01-04T07:22:25.117Z,2.80
2024-01-04T07:23:25.088Z,2.10
2024-01-04T07:24:25.119Z,2.50
2024-01-04T07:25:25.068Z,4.10
2024-01-04T07:26:25.044Z,2.90
2024-01-04T07:27:25.084Z,2.10
2024-01-04T07:28:25.011Z,1.80
2024-01-04T07:29:25.040Z,2.90
2024-01-04T07:30:25.080Z,2.10
2024-01-04T07:31:25.027Z,2.00
2024-01-04T07:32:24.989Z,3.20
2024-01-04T07:33:25.071Z,2.00
2024-01-04T07:34:25.124Z,2.00
2024-01-04T07:35:25.081Z,1.60
2024-01-04T07:36:25.053Z,1.00
2024-01-04T07:37:24.931Z,0.70
2024-01-04T07:38:24.915Z,1.00
2024-01-04T07:39:24.976Z,1.50
2024-01-04T07:40:24.936Z,1.10
2024-01-04T07:41:24.882Z,1.10
2024-01-04T07:42:24.932Z,0.90
2024-01-04T07:43:24.876Z,1.30
2024-01-04T07:44:24.848Z,1.30
2024-01-04T07:45:24.890Z,0.80
2024-01-04T07:46:24.868Z,1.40
2024-01-04T07:47:24.842Z,1.80
2024-01-04T07:48:24.994Z,2.70
2024-01-04T07:49:24.887Z,2.60
2024-01-04T07:50:24.798Z,1.50
2024-01-04T07:51:24.831Z,3.20
2024-01-04T07:52:24.775Z,2.00
2024-01-04T07:53:24.788Z,1.30
2024-01-04T07:54:24.808Z,1.90
2024-01-04T07:55:24.743Z,2.50
2024-01-04T07:56:24.766Z,2.40
2024-01-04T07:57:24.759Z,2.80
2024-01-04T07:58:24.742Z,2.90
2024-01-04T07:59:24.699Z,3.50
2024-01-04T08:00:24.933Z,3.80
2024-01-04T08:01:24.711Z,1.70
2024-01-04T08:02:24.701Z,2.30
2024-01-04T08:03:24.714Z,2.40
2024-01-04T08:04:24.674Z,5.10
2024-01-04T08:05:24.702Z,2.10
2024-01-04T08:06:24.821Z,3.50
2024-01-04T08:07:24.640Z,2.30
2024-01-04T08:08:24.620Z,2.40
2024-01-04T08:09:24.597Z,3.20
2024-01-04T08:10:24.583Z,3.60
2024-01-04T08:11:24.562Z,3.90
2024-01-04T08:12:24.632Z,2.20
2024-01-04T08:13:24.550Z,2.40
2024-01-04T08:14:24.552Z,2.30
2024-01-04T08:15:24.796Z,3.00
2024-01-04T08:16:24.559Z,2.80
2024-01-04T08:17:24.574Z,2.80
2024-01-04T08:18:24.725Z,3.00
2024-01-04T08:19:24.679Z,3.40
2024-01-04T08:20:24.721Z,3.20
2024-01-04T08:21:24.555Z,3.10
2024-01-04T08:22:24.552Z,3.90
2024-01-04T08:23:24.462Z,3.20
2024-01-04T08:24:24.558Z,3.10
2024-01-04T08:25:24.424Z,3.20
2024-01-04T08:26:24.411Z,2.70
2024-01-04T08:27:24.423Z,2.10
2024-01-04T08:28:24.432Z,3.30
2024-01-04T08:29:24.421Z,2.00
2024-01-04T08:30:24.469Z,3.20
2024-01-04T08:31:24.478Z,3.00
2024-01-04T08:32:24.371Z,3.30
2024-01-04T08:33:24.489Z,2.60
2024-01-04T08:34:24.381Z,3.00
2024-01-04T08:35:24.334Z,2.20
2024-01-04T08:36:24.312Z,3.10
2024-01-04T08:37:24.320Z,3.40
2024-01-04T08:38:24.317Z,2.60
2024-01-04T08:39:24.489Z,2.20
2024-01-04T08:40:24.301Z,2.90
2024-01-04T08:41:24.307Z,2.50
2024-01-04T08:42:24.352Z,2.40
2024-01-04T08:43:24.241Z,2.80
2024-01-04T08:44:24.238Z,1.80
2024-01-04T08:45:24.248Z,2.30
2024-01-04T08:46:24.221Z,4.40
2024-01-04T08:47:24.204Z,3.10
2024-01-04T08:48:24.440Z,4.30
2024-01-04T08:49:24.440Z,2.10
2024-01-04T08:50:24.340Z,2.30
2024-01-04T08:51:24.252Z,3.90
2024-01-04T08:52:24.233Z,2.70
2024-01-04T08:53:24.163Z,2.40
2024-01-04T08:54:24.231Z,3.20
2024-01-04T08:55:24.113Z,2.90
2024-01-04T08:56:24.168Z,4.00
2024-01-04T08:57:24.244Z,2.60
2024-01-04T08:58:24.077Z,2.70
2024-01-04T08:59:24.097Z,4.40
2024-01-04T09:00:24.101Z,4.10
2024-01-04T09:01:24.078Z,2.40
2024-01-04T09:02:24.024Z,3.90
2024-01-04T09:03:24.075Z,3.60
2024-01-04T09:04:24.143Z,4.00
2024-01-04T09:05:24.062Z,2.70
2024-01-04T09:06:24.057Z,2.80
2024-01-04T09:07:25.554Z,3.10
2024-01-04T09:08:23.973Z,4.10
2024-01-04T09:09:24.132Z,2.40
2024-01-04T09:10:23.966Z,3.10
2024-01-04T09:11:24.073Z,2.70
2024-01-04T09:12:24.067Z,3.30
2024-01-04T09:13:23.986Z,4.00
2024-01-04T09:14:23.893Z,2.60
2024-01-04T09:15:23.959Z,2.00
2024-01-04T09:16:24.012Z,2.00
2024-01-04T09:17:23.911Z,1.50
2024-01-04T09:18:24.038Z,2.60
2024-01-04T09:19:25.148Z,2.80
2024-01-04T09:20:23.838Z,2.90
2024-01-04T09:21:23.919Z,1.90
2024-01-04T09:22:23.919Z,2.70
2024-01-04T09:23:24.151Z,2.60
2024-01-04T09:24:23.940Z,2.40
2024-01-04T09:25:28.087Z,2.40
2024-01-04T09:26:23.825Z,2.90
2024-01-04T09:27:23.877Z,1.70
2024-01-04T09:28:23.773Z,2.00
2024-01-04T09:29:23.765Z,2.10
2024-01-04T09:30:23.886Z,2.20
2024-01-04T09:31:27.050Z,2.60
2024-01-04T09:32:23.702Z,2.50
2024-01-04T09:33:23.762Z,3.90
2024-01-04T09:34:23.977Z,4.20
2024-01-04T09:35:23.712Z,3.00
2024-01-04T09:36:23.843Z,2.60
2024-01-04T09:37:26.430Z,3.40
2024-01-04T09:38:23.657Z,2.20
2024-01-04T09:39:23.786Z,3.60
2024-01-04T09:40:23.648Z,2.40
2024-01-04T09:41:23.635Z,2.50
2024-01-04T09:42:23.807Z,3.30
2024-01-04T09:43:23.616Z,2.70
2024-01-04T09:44:23.681Z,2.90
2024-01-04T09:45:23.755Z,2.20
2024-01-04T09:46:23.555Z,3.30
2024-01-04T09:47:23.585Z,2.30
2024-01-04T09:48:28.952Z,3.10
2024-01-04T09:49:24.399Z,3.90
2024-01-04T09:50:23.852Z,3.80
2024-01-04T09:51:23.545Z,3.60
2024-01-04T09:52:23.499Z,2.50
2024-01-04T09:53:23.520Z,2.10
2024-01-04T09:54:23.485Z,3.10
2024-01-04T09:55:23.587Z,2.90
2024-01-04T09:56:23.628Z,2.40
2024-01-04T09:57:23.592Z,3.50
2024-01-04T09:58:23.443Z,3.40
2024-01-04T09:59:23.503Z,2.20
2024-01-04T10:00:23.448Z,2.90
2024-01-04T10:01:23.421Z,2.80
2024-01-04T10:02:23.376Z,2.70
2024-01-04T10:03:23.433Z,2.10
2024-01-04T10:04:23.365Z,2.00
2024-01-04T10:05:23.396Z,1.90
2024-01-04T10:06:23.334Z,1.90
2024-01-04T10:07:23.374Z,2.10
2024-01-04T10:08:23.335Z,3.30
2024-01-04T10:09:23.429Z,2.60
2024-01-04T10:10:23.358Z,2.80
2024-01-04T10:11:23.292Z,4.20
2024-01-04T10:12:23.351Z,2.60
2024-01-04T10:13:23.288Z,3.00
2024-01-04T10:14:23.357Z,3.10
2024-01-04T10:15:23.282Z,2.80
2024-01-04T10:16:23.217Z,3.30
2024-01-04T10:17:23.326Z,3.00
2024-01-04T10:18:23.326Z,3.00
2024-01-04T10:19:23.339Z,4.40
2024-01-04T10:20:23.193Z,3.30
2024-01-04T10:21:23.252Z,4.10
2024-01-04T10:22:23.148Z,3.90
2024-01-04T10:23:23.157Z,3.30
2024-01-04T10:24:23.285Z,3.10
2024-01-04T10:25:23.128Z,2.70
2024-01-04T10:26:23.139Z,3.20
2024-01-04T10:27:23.146Z,2.40
2024-01-04T10:28:23.106Z,2.50
2024-01-04T10:29:23.103Z,3.40
2024-01-04T10:30:23.153Z,4.30
2024-01-04T10:31:23.073Z,3.20
2024-01-04T10:32:23.077Z,2.20
2024-01-04T10:33:23.234Z,3.00
2024-01-04T10:34:23.136Z,2.60
2024-01-04T10:35:23.043Z,2.40
2024-01-04T10:36:23.077Z,3.10
2024-01-04T10:37:23.058Z,2.90
2024-01-04T10:38:23.017Z,2.70
2024-01-04T10:39:23.190Z,2.90
2024-01-04T10:40:23.033Z,3.00
2024-01-04T10:41:23.049Z,2.90
2024-01-04T10:42:23.009Z,2.60
2024-01-04T10:43:22.950Z,4.10
2024-01-04T10:44:22.936Z,2.70
2024-01-04T10:45:23.077Z,1.70
2024-01-04T10:46:22.941Z,2.00
2024-01-04T10:47:22.948Z,2.90
2024-01-04T10:48:23.092Z,4.20
2024-01-04T10:49:23.003Z,3.40
2024-01-04T10:50:22.928Z,3.00
2024-01-04T10:51:22.948Z,3.70
2024-01-04T10:52:25.745Z,3.30
2024-01-04T10:53:22.885Z,4.60
2024-01-04T10:54:22.937Z,2.90
2024-01-04T10:55:22.864Z,3.50
2024-01-04T10:56:23.177Z,2.90
2024-01-04T10:57:22.908Z,3.10
2024-01-04T10:58:22.777Z,3.00
2024-01-04T10:59:22.792Z,2.80
2024-01-04T11:00:22.960Z,2.70
2024-01-04T11:01:22.766Z,2.90
2024-01-04T11:02:22.782Z,2.70
2024-01-04T11:03:22.842Z,3.70
2024-01-04T11:04:22.778Z,2.90
2024-01-04T11:05:22.874Z,2.00
2024-01-04T11:06:22.775Z,3.60
2024-01-04T11:07:22.723Z,2.60
2024-01-04T11:08:22.763Z,5.40
2024-01-04T11:09:22.726Z,2.60
2024-01-04T11:10:22.723Z,2.00
2024-01-04T11:11:22.658Z,2.20
2024-01-04T11:12:22.745Z,2.40
2024-01-04T11:13:22.680Z,3.30
2024-01-04T11:14:22.662Z,2.60
2024-01-04T11:15:22.730Z,3.20
2024-01-04T11:16:22.577Z,2.70
2024-01-04T11:17:22.569Z,3.90
2024-01-04T11:18:22.743Z,3.30
2024-01-04T11:19:22.722Z,2.40
2024-01-04T11:20:22.593Z,2.70
2024-01-04T11:21:22.595Z,2.60
2024-01-04T11:22:22.549Z,2.30
2024-01-04T11:23:22.542Z,4.90
2024-01-04T11:24:22.603Z,4.00
2024-01-04T11:25:22.522Z,3.50
2024-01-04T11:26:22.495Z,2.80
2024-01-04T11:27:22.550Z,2.80
2024-01-04T11:28:33.956Z,2.10
2024-01-04T11:29:22.473Z,2.90
2024-01-04T11:30:22.581Z,3.00
2024-01-04T11:31:22.467Z,2.70
2024-01-04T11:32:22.483Z,2.80
2024-01-04T11:33:22.496Z,3.50
2024-01-04T11:34:22.578Z,3.50
2024-01-04T11:35:22.427Z,4.20
2024-01-04T11:36:22.608Z,2.70
2024-01-04T11:37:22.446Z,2.90
2024-01-04T11:38:22.374Z,3.10
2024-01-04T11:39:22.411Z,4.40
2024-01-04T11:40:22.350Z,3.70
2024-01-04T11:41:22.328Z,4.00
2024-01-04T11:42:22.365Z,3.60
2024-01-04T11:43:22.333Z,3.20
2024-01-04T11:44:22.300Z,2.80
2024-01-04T11:45:22.435Z,3.10
2024-01-04T11:46:22.277Z,5.10
2024-01-04T11:47:22.501Z,2.80
2024-01-04T11:48:22.526Z,3.10
2024-01-04T11:49:22.331Z,3.50
2024-01-04T11:50:22.550Z,3.30
2024-01-04T11:51:22.247Z,3.20
2024-01-04T11:52:22.226Z,2.40
2024-01-04T11:53:22.283Z,3.20
2024-01-04T11:54:22.900Z,3.60
2024-01-04T11:55:22.220Z,5.20
2024-01-04T11:56:22.193Z,5.30
2024-01-04T11:57:22.200Z,4.70
2024-01-04T11:58:22.217Z,4.40
2024-01-04T11:59:22.166Z,5.60
2024-01-04T12:00:22.192Z,4.70
2024-01-04T12:01:22.185Z,3.30
2024-01-04T12:02:22.108Z,3.00
2024-01-04T12:03:22.191Z,3.30
2024-01-04T12:04:22.156Z,3.40
2024-01-04T12:05:22.142Z,2.70
2024-01-04T12:06:22.103Z,3.30
2024-01-04T12:07:22.074Z,4.20
2024-01-04T12:08:22.083Z,2.80
2024-01-04T12:09:22.126Z,3.60
2024-01-04T12:10:22.024Z,3.70
2024-01-04T12:11:22.390Z,3.80
2024-01-04T12:12:22.133Z,3.00
2024-01-04T12:13:22.003Z,3.20
2024-01-04T12:14:22.010Z,4.20
2024-01-04T12:15:22.158Z,3.90
2024-01-04T12:16:21.961Z,4.90
2024-01-04T12:17:22.034Z,3.90
2024-01-04T12:18:26.010Z,4.00
2024-01-04T12:19:22.221Z,4.00
2024-01-04T12:20:21.955Z,3.20
2024-01-04T12:21:22.264Z,3.60
2024-01-04T12:22:21.946Z,3.80
2024-01-04T12:23:21.906Z,3.40
2024-01-04T12:24:21.978Z,5.30
2024-01-04T12:25:22.504Z,3.50
2024-01-04T12:26:21.868Z,4.10
2024-01-04T12:27:22.007Z,3.30
2024-01-04T12:28:21.876Z,4.30
2024-01-04T12:29:21.828Z,4.60
2024-01-04T12:30:21.845Z,3.60
2024-01-04T12:31:22.386Z,3.90
2024-01-04T12:32:21.897Z,3.50
2024-01-04T12:33:21.899Z,4.50
2024-01-04T12:34:21.880Z,3.20
2024-01-04T12:35:21.757Z,4.00
2024-01-04T12:36:21.814Z,4.50
2024-01-04T12:37:23.338Z,3.80
2024-01-04T12:38:21.742Z,5.10
2024-01-04T12:39:21.815Z,4.20
2024-01-04T12:40:21.735Z,3.90
2024-01-04T12:41:21.736Z,4.50
2024-01-04T12:42:21.739Z,3.40
2024-01-04T12:43:23.740Z,3.40
2024-01-04T12:44:21.650Z,3.70
2024-01-04T12:45:21.679Z,3.10
2024-01-04T12:46:21.632Z,3.60
2024-01-04T12:47:21.648Z,3.10
2024-01-04T12:48:21.835Z,3.10
2024-01-04T12:49:24.938Z,4.10
2024-01-04T12:50:21.607Z,3.60
2024-01-04T12:51:22.141Z,3.80
2024-01-04T12:52:21.592Z,3.50
2024-01-04T12:53:21.560Z,3.70
2024-01-04T12:54:21.679Z,3.50
2024-01-04T12:55:21.553Z,3.80
2024-01-04T12:56:21.579Z,3.70
2024-01-04T12:57:21.556Z,4.00
2024-01-04T12:58:21.550Z,4.20
2024-01-04T12:59:21.635Z,4.10
2024-01-04T13:00:21.536Z,4.80
2024-01-04T13:01:21.952Z,4.20
2024-01-04T13:02:21.492Z,3.60
2024-01-04T13:03:21.705Z,4.40
2024-01-04T13:04:21.612Z,4.70
2024-01-04T13:05:21.515Z,3.90
2024-01-04T13:06:21.720Z,3.90
2024-01-04T13:07:21.612Z,4.00
2024-01-04T13:08:21.547Z,4.90
2024-01-04T13:09:21.468Z,4.40
2024-01-04T13:10:21.489Z,3.60
2024-01-04T13:11:21.469Z,4.60
2024-01-04T13:12:22.411Z,4.00
2024-01-04T13:13:21.419Z,3.60
2024-01-04T13:14:21.452Z,3.80
2024-01-04T13:15:21.406Z,4.00
2024-01-04T13:16:21.340Z,4.80
2024-01-04T13:17:21.378Z,4.10
2024-01-04T13:18:21.497Z,4.30